createdAt,value
2023-01-08T00:01:17.014Z,4.80
2023-01-08T00:03:44.232Z,4.80
2023-01-08T00:06:14.169Z,4.90
2023-01-08T00:08:41.534Z,4.70
2023-01-08T00:11:08.642Z,4.70
2023-01-08T00:13:35.697Z,4.60
2023-01-08T00:16:08.098Z,4.70
2023-01-08T00:18:35.038Z,4.60
2023-01-08T00:21:05.206Z,4.60
2023-01-08T00:23:33.166Z,4.60
2023-01-08T00:26:05.327Z,4.60
2023-01-08T00:28:32.418Z,4.60
2023-01-08T00:31:00.304Z,4.60
2023-01-08T00:33:28.422Z,4.60
2023-01-08T00:35:55.240Z,4.70
2023-01-08T00:38:26.857Z,4.60
2023-01-08T00:40:57.353Z,4.60
2023-01-08T00:43:24.279Z,4.70
2023-01-08T00:45:54.173Z,4.80
2023-01-08T00:48:25.219Z,4.70
2023-01-08T00:50:53.609Z,4.60
2023-01-08T00:53:21.609Z,4.50
2023-01-08T00:55:48.602Z,4.50
2023-01-08T00:58:15.695Z,4.60
2023-01-08T01:00:42.755Z,4.60
2023-01-08T01:03:12.164Z,4.50
2023-01-08T01:05:39.101Z,4.40
2023-01-08T01:08:06.078Z,4.40
2023-01-08T01:10:33.001Z,4.30
2023-01-08T01:12:59.842Z,4.20
2023-01-08T01:15:26.823Z,4.30
2023-01-08T01:17:53.723Z,4.20
2023-01-08T01:20:20.800Z,4.20
2023-01-08T01:22:47.791Z,4.10
2023-01-08T01:25:14.823Z,4.20
2023-01-08T01:27:41.871Z,4.30
2023-01-08T01:30:09.717Z,4.30
2023-01-08T01:32:36.778Z,4.20
2023-01-08T01:35:03.973Z,4.30
2023-01-08T01:37:30.943Z,4.30
2023-01-08T01:39:58.121Z,4.20
2023-01-08T01:42:40.479Z,4.30
2023-01-08T01:45:27.931Z,4.30
2023-01-08T01:47:59.788Z,4.20
2023-01-08T01:50:33.247Z,4.30
2023-01-08T01:53:00.102Z,4.30
2023-01-08T01:55:27.983Z,4.30
2023-01-08T01:58:08.073Z,4.30
2023-01-08T02:00:35.860Z,4.30
2023-01-08T02:03:05.241Z,4.30
2023-01-08T02:05:43.969Z,4.40
2023-01-08T02:08:15.276Z,4.40
2023-01-08T02:10:58.506Z,4.30
2023-01-08T02:13:33.469Z,4.30
2023-01-08T02:16:00.300Z,4.30
2023-01-08T02:18:34.784Z,4.30
2023-01-08T02:21:10.384Z,4.30
2023-01-08T02:23:58.654Z,4.30
2023-01-08T02:26:35.140Z,4.40
2023-01-08T02:29:09.982Z,4.40
2023-01-08T02:31:39.963Z,4.40
2023-01-08T02:34:07.240Z,4.40
2023-01-08T02:36:35.773Z,4.40
2023-01-08T02:39:35.423Z,4.30
2023-01-08T02:42:11.503Z,4.30
2023-01-08T02:45:15.870Z,4.30
2023-01-08T02:47:59.229Z,4.20
2023-01-08T02:50:49.259Z,4.20
2023-01-08T02:53:23.395Z,4.10
2023-01-08T02:55:54.208Z,4.10
2023-01-08T02:58:23.472Z,4.10
2023-01-08T03:00:51.605Z,4.00
2023-01-08T03:03:27.592Z,3.90
2023-01-08T03:05:58.928Z,3.90
2023-01-08T03:08:27.102Z,4.00
2023-01-08T03:11:00.002Z,3.80
2023-01-08T03:13:41.936Z,3.80
2023-01-08T03:16:18.091Z,3.80
2023-01-08T03:19:03.009Z,3.80
2023-01-08T03:21:31.334Z,3.70
2023-01-08T03:23:58.798Z,3.60
2023-01-08T03:26:27.375Z,3.60
2023-01-08T03:28:56.585Z,3.60
2023-01-08T03:31:25.931Z,3.50
2023-01-08T03:33:53.909Z,3.40
2023-01-08T03:36:25.050Z,3.30
2023-01-08T03:38:59.415Z,3.40
2023-01-08T03:41:29.765Z,3.40
2023-01-08T03:43:57.138Z,3.30
2023-01-08T03:46:30.704Z,3.40
2023-01-08T03:48:59.839Z,3.50
2023-01-08T03:51:27.338Z,3.30
2023-01-08T03:53:58.797Z,3.30
2023-01-08T03:56:26.096Z,3.40
2023-01-08T03:58:53.022Z,3.40
2023-01-08T04:01:20.028Z,3.40
2023-01-08T04:03:47.423Z,3.40
2023-01-08T04:06:14.247Z,3.50
2023-01-08T04:08:41.154Z,3.50
2023-01-08T04:11:08.165Z,3.40
2023-01-08T04:13:35.084Z,3.40
2023-01-08T04:16:02.020Z,3.50
2023-01-08T04:18:28.985Z,3.40
2023-01-08T04:20:57.785Z,3.40
2023-01-08T04:23:24.765Z,3.40
2023-01-08T04:25:51.948Z,3.40
2023-01-08T04:28:19.408Z,3.40
2023-01-08T04:30:46.245Z,3.30
2023-01-08T04:33:13.435Z,3.30
2023-01-08T04:35:40.358Z,3.30
2023-01-08T04:38:07.268Z,3.30
2023-01-08T04:40:34.825Z,3.30
2023-01-08T04:43:01.725Z,3.30
2023-01-08T04:45:28.605Z,3.30
2023-01-08T04:48:00.719Z,3.30
2023-01-08T04:50:27.908Z,3.40
2023-01-08T04:52:54.832Z,3.30
2023-01-08T04:55:21.818Z,3.30
2023-01-08T04:57:48.737Z,3.40
2023-01-08T05:00:16.076Z,3.40
2023-01-08T05:02:43.137Z,3.50
2023-01-08T05:05:10.312Z,3.60
2023-01-08T05:07:37.198Z,3.60
2023-01-08T05:10:05.172Z,3.40
2023-01-08T05:12:32.128Z,3.40
2023-01-08T05:14:58.997Z,3.30
2023-01-08T05:17:25.889Z,3.40
2023-01-08T05:19:52.763Z,3.40
2023-01-08T05:22:19.634Z,3.30
2023-01-08T05:24:46.519Z,3.30
2023-01-08T05:27:13.461Z,3.50
2023-01-08T05:29:40.281Z,3.40
2023-01-08T05:32:15.779Z,3.30
2023-01-08T05:34:43.482Z,3.30
2023-01-08T05:37:10.544Z,3.30
2023-01-08T05:39:38.003Z,3.20
2023-01-08T05:42:05.078Z,3.20
2023-01-08T05:44:31.935Z,3.20
2023-01-08T05:46:58.849Z,3.30
2023-01-08T05:49:25.822Z,3.30
2023-01-08T05:51:52.675Z,3.30
2023-01-08T05:54:19.553Z,3.30
2023-01-08T05:56:46.430Z,3.20
2023-01-08T05:59:14.372Z,3.20
2023-01-08T06:01:41.353Z,3.20
2023-01-08T06:04:08.586Z,3.10
2023-01-08T06:06:35.896Z,3.10
2023-01-08T06:09:02.801Z,3.10
2023-01-08T06:11:29.628Z,3.20
2023-01-08T06:13:56.655Z,3.10
2023-01-08T06:16:23.597Z,3.10
2023-01-08T06:18:50.524Z,3.20
2023-01-08T06:21:17.480Z,3.20
2023-01-08T06:23:44.408Z,3.10
2023-01-08T06:26:11.350Z,3.10
2023-01-08T06:28:38.176Z,3.20
2023-01-08T06:31:05.266Z,3.10
2023-01-08T06:33:32.567Z,3.20
2023-01-08T06:36:04.628Z,3.20
2023-01-08T06:38:33.542Z,3.20
2023-01-08T06:41:05.030Z,3.20
2023-01-08T06:43:33.077Z,3.20
2023-01-08T06:46:09.540Z,3.30
2023-01-08T06:48:37.172Z,3.20
2023-01-08T06:51:05.284Z,3.20
2023-01-08T06:53:32.626Z,3.20
2023-01-08T06:55:59.756Z,3.20
2023-01-08T06:58:27.719Z,3.20
2023-01-08T07:00:54.889Z,3.20
2023-01-08T07:03:21.990Z,3.20
2023-01-08T07:05:50.776Z,3.20
2023-01-08T07:08:18.558Z,3.20
2023-01-08T07:10:45.880Z,3.20
2023-01-08T07:13:13.206Z,3.20
2023-01-08T07:15:40.907Z,3.20
2023-01-08T07:18:12.264Z,3.20
2023-01-08T07:20:39.506Z,3.30
2023-01-08T07:23:09.783Z,3.10
2023-01-08T07:25:36.787Z,3.20
2023-01-08T07:28:03.677Z,3.20
2023-01-08T07:30:30.935Z,3.10
2023-01-08T07:33:01.954Z,3.20
2023-01-08T07:35:29.485Z,3.10
2023-01-08T07:37:56.807Z,3.20
2023-01-08T07:40:24.254Z,3.20
2023-01-08T07:43:01.481Z,3.20
2023-01-08T07:45:29.697Z,3.10
2023-01-08T07:48:00.185Z,3.10
2023-01-08T07:50:27.956Z,3.10
2023-01-08T07:52:58.666Z,3.10
2023-01-08T07:55:25.621Z,3.20
2023-01-08T07:57:52.525Z,3.20
2023-01-08T08:00:19.709Z,3.10
2023-01-08T08:02:46.851Z,3.20
2023-01-08T08:05:14.098Z,3.20
2023-01-08T08:07:41.028Z,3.20
2023-01-08T08:10:08.525Z,3.10
2023-01-08T08:12:35.441Z,3.10
2023-01-08T08:15:02.512Z,3.00
2023-01-08T08:17:29.427Z,3.00
2023-01-08T08:19:56.353Z,3.20
2023-01-08T08:22:23.239Z,3.10
2023-01-08T08:24:50.101Z,3.10
2023-01-08T08:27:17.090Z,3.10
2023-01-08T08:29:44.037Z,3.10
2023-01-08T08:32:10.943Z,3.10
2023-01-08T08:34:37.897Z,3.10
2023-01-08T08:37:04.826Z,3.30
2023-01-08T08:39:31.760Z,3.20
2023-01-08T08:41:58.736Z,3.30
2023-01-08T08:44:25.636Z,3.40
2023-01-08T08:46:52.644Z,3.30
2023-01-08T08:49:19.724Z,3.40
2023-01-08T08:51:46.750Z,3.50
2023-01-08T08:54:16.576Z,3.50
2023-01-08T08:56:43.450Z,3.40
2023-01-08T08:59:13.353Z,3.50
2023-01-08T09:01:42.575Z,3.50
2023-01-08T09:04:09.552Z,3.50
2023-01-08T09:06:36.564Z,3.60
2023-01-08T09:09:03.785Z,3.40
2023-01-08T09:11:31.941Z,3.50
2023-01-08T09:13:59.069Z,3.50
2023-01-08T09:16:26.067Z,3.60
2023-01-08T09:18:53.124Z,3.70
2023-01-08T09:21:20.024Z,3.80
2023-01-08T09:23:49.342Z,3.80
2023-01-08T09:26:16.363Z,3.90
2023-01-08T09:28:43.522Z,3.80
2023-01-08T09:31:10.564Z,3.90
2023-01-08T09:33:37.569Z,3.80
2023-01-08T09:36:04.697Z,3.90
2023-01-08T09:38:31.628Z,3.90
2023-01-08T09:41:06.251Z,3.80
2023-01-08T09:43:36.569Z,3.90
2023-01-08T09:46:06.213Z,4.00
2023-01-08T09:48:39.293Z,4.00
2023-01-08T09:51:14.407Z,4.20
2023-01-08T09:53:43.293Z,4.20
2023-01-08T09:56:18.565Z,4.20
2023-01-08T09:58:53.071Z,4.20
2023-01-08T10:01:41.263Z,4.10
2023-01-08T10:04:14.587Z,4.20
2023-01-08T10:06:46.964Z,4.10
2023-01-08T10:09:15.188Z,4.00
2023-01-08T10:11:50.748Z,4.10
2023-01-08T10:14:25.600Z,4.10
2023-01-08T10:17:14.812Z,4.10
2023-01-08T10:19:41.834Z,4.20
2023-01-08T10:22:32.934Z,4.10
2023-01-08T10:25:09.994Z,4.10
2023-01-08T10:27:50.129Z,4.20
2023-01-08T10:30:21.062Z,4.20
2023-01-08T10:32:56.209Z,4.10
2023-01-08T10:35:33.278Z,4.00
2023-01-08T10:38:00.264Z,4.10
2023-01-08T10:40:31.537Z,4.10
2023-01-08T10:43:06.637Z,4.10
2023-01-08T10:45:34.162Z,4.20
2023-01-08T10:48:04.949Z,4.10
2023-01-08T10:50:33.862Z,4.10
2023-01-08T10:53:05.759Z,4.10
2023-01-08T10:55:37.555Z,4.00
2023-01-08T10:58:10.659Z,3.90
2023-01-08T11:00:37.992Z,3.90
2023-01-08T11:03:07.773Z,3.90
2023-01-08T11:05:43.129Z,3.90
2023-01-08T11:08:19.512Z,3.90
2023-01-08T11:10:56.597Z,3.90
2023-01-08T11:13:24.359Z,4.00
2023-01-08T11:16:13.001Z,4.10
2023-01-08T11:18:48.714Z,4.00
2023-01-08T11:21:26.271Z,4.10
2023-01-08T11:24:12.839Z,4.00
2023-01-08T11:26:43.652Z,4.10
2023-01-08T11:29:23.506Z,4.10
2023-01-08T11:32:04.939Z,4.20
2023-01-08T11:35:01.038Z,4.10
2023-01-08T11:37:32.006Z,4.10
2023-01-08T11:39:59.105Z,4.10
2023-01-08T11:42:53.839Z,4.20
2023-01-08T11:45:39.088Z,4.10
2023-01-08T11:48:08.907Z,4.10
2023-01-08T11:50:38.776Z,4.10
2023-01-08T11:53:37.469Z,4.10
2023-01-08T11:56:04.390Z,4.20
2023-01-08T11:58:54.214Z,4.00
2023-01-08T12:01:32.544Z,3.90
2023-01-08T12:04:42.658Z,3.90
2023-01-08T12:07:57.066Z,3.80
2023-01-08T12:10:45.880Z,4.10
2023-01-08T12:16:25.803Z,3.80
2023-01-08T12:18:58.560Z,3.80
2023-01-08T12:21:47.531Z,3.90
2023-01-08T12:24:37.993Z,3.90
2023-01-08T12:27:14.136Z,3.80
2023-01-08T12:29:53.674Z,3.80
2023-01-08T12:32:47.973Z,3.90
2023-01-08T12:36:22.172Z,3.90
2023-01-08T12:43:01.019Z,4.00
2023-01-08T12:45:42.021Z,3.90
2023-01-08T12:48:18.604Z,4.10
2023-01-08T12:50:51.619Z,4.00
2023-01-08T12:53:24.481Z,4.00
2023-01-08T12:56:19.795Z,4.10
2023-01-08T12:59:05.048Z,4.00
2023-01-08T13:04:50.907Z,3.90
2023-01-08T13:07:27.851Z,3.80
2023-01-08T13:10:03.265Z,3.80
2023-01-08T13:12:40.130Z,3.70
2023-01-08T13:15:22.489Z,3.60
2023-01-08T13:17:57.356Z,3.70
2023-01-08T13:20:29.524Z,3.80
2023-01-08T13:23:02.127Z,3.80
2023-01-08T13:25:35.071Z,3.70
2023-01-08T13:28:18.460Z,3.80
2023-01-08T13:30:49.164Z,3.80
2023-01-08T13:33:38.283Z,3.70
2023-01-08T13:36:22.357Z,3.80
2023-01-08T13:39:18.653Z,3.70
2023-01-08T13:42:21.173Z,3.80
2023-01-08T13:44:54.735Z,3.70
2023-01-08T13:47:36.554Z,3.70
2023-01-08T13:50:18.091Z,3.60
2023-01-08T13:52:48.977Z,3.70
2023-01-08T13:55:38.597Z,3.60
2023-01-08T13:58:13.386Z,3.50
2023-01-08T14:00:43.314Z,3.50
2023-01-08T14:03:46.594Z,3.50
2023-01-08T14:06:18.852Z,3.60
2023-01-08T14:08:55.509Z,3.50
2023-01-08T14:11:43.138Z,3.50
2023-01-08T14:14:18.678Z,3.50
2023-01-08T14:16:47.701Z,3.50
2023-01-08T14:19:19.478Z,3.50
2023-01-08T14:21:54.882Z,3.50
2023-01-08T14:24:25.200Z,3.50
2023-01-08T14:26:57.374Z,3.50
2023-01-08T14:29:33.027Z,3.40
2023-01-08T14:32:01.174Z,3.40
2023-01-08T14:34:30.972Z,3.50
2023-01-08T14:36:58.296Z,3.50
2023-01-08T14:39:33.090Z,3.40
2023-01-08T14:42:32.923Z,3.40
2023-01-08T14:45:14.911Z,3.40
2023-01-08T14:47:48.796Z,3.40
2023-01-08T14:50:29.340Z,3.30
2023-01-08T14:53:15.346Z,3.30
2023-01-08T14:55:45.465Z,3.30
2023-01-08T14:58:23.432Z,3.30
2023-01-08T15:01:02.944Z,3.20
2023-01-08T15:03:36.798Z,3.30
2023-01-08T15:06:05.065Z,3.40
2023-01-08T15:08:43.616Z,3.30
2023-01-08T15:11:19.657Z,3.30
2023-01-08T15:13:48.437Z,3.30
2023-01-08T15:16:29.716Z,3.30
2023-01-08T15:19:11.776Z,3.20
2023-01-08T15:21:39.633Z,3.20
2023-01-08T15:24:07.712Z,3.20
2023-01-08T15:26:34.727Z,3.30
2023-01-08T15:29:06.313Z,3.30
2023-01-08T15:31:56.118Z,3.30
2023-01-08T15:34:23.147Z,3.30
2023-01-08T15:36:50.053Z,3.40
2023-01-08T15:39:17.001Z,3.40
2023-01-08T15:42:02.289Z,3.30
2023-01-08T15:44:29.129Z,3.30
2023-01-08T15:46:56.094Z,3.30
2023-01-08T15:49:22.986Z,3.30
2023-01-08T15:51:51.992Z,3.30
2023-01-08T15:54:20.732Z,3.30
2023-01-08T15:56:47.882Z,3.30
2023-01-08T15:59:14.716Z,3.30
2023-01-08T16:01:41.848Z,3.30
2023-01-08T16:04:08.885Z,3.30
2023-01-08T16:06:36.400Z,3.40
2023-01-08T16:09:03.647Z,3.30
2023-01-08T16:11:30.574Z,3.30
2023-01-08T16:13:57.736Z,3.30
2023-01-08T16:16:24.770Z,3.40
2023-01-08T16:18:52.768Z,3.40
2023-01-08T16:21:19.741Z,3.40
2023-01-08T16:23:46.684Z,3.30
2023-01-08T16:26:16.203Z,3.30
2023-01-08T16:28:43.264Z,3.30
2023-01-08T16:31:10.972Z,3.30
2023-01-08T16:33:38.339Z,3.40
2023-01-08T16:36:09.187Z,3.30
2023-01-08T16:38:36.744Z,3.30
2023-01-08T16:41:05.207Z,3.20
2023-01-08T16:43:40.227Z,3.20
2023-01-08T16:46:18.010Z,3.20
2023-01-08T16:48:46.843Z,3.30
2023-01-08T16:51:14.983Z,3.40
2023-01-08T16:53:42.341Z,3.30
2023-01-08T16:56:10.041Z,3.30
2023-01-08T16:58:39.476Z,3.30
2023-01-08T17:01:10.610Z,3.40
2023-01-08T17:03:37.996Z,3.30
2023-01-08T17:06:12.710Z,3.40
2023-01-08T17:08:41.406Z,3.40
2023-01-08T17:11:13.919Z,3.40
2023-01-08T17:13:41.145Z,3.30
2023-01-08T17:16:14.042Z,3.30
2023-01-08T17:18:41.347Z,3.30
2023-01-08T17:21:10.111Z,3.40
2023-01-08T17:23:40.351Z,3.30
2023-01-08T17:26:13.985Z,3.30
2023-01-08T17:28:42.253Z,3.40
2023-01-08T17:31:18.359Z,3.40
2023-01-08T17:33:54.630Z,3.40
2023-01-08T17:36:26.620Z,3.40
2023-01-08T17:39:01.050Z,3.30
2023-01-08T17:42:04.929Z,3.40
2023-01-08T17:45:09.295Z,3.30
2023-01-08T17:47:43.060Z,3.40
2023-01-08T17:50:23.423Z,3.40
2023-01-08T17:52:52.839Z,3.50
2023-01-08T17:56:32.827Z,3.40
2023-01-08T18:02:36.595Z,3.40
2023-01-08T18:05:20.612Z,3.60
2023-01-08T18:07:54.065Z,3.50
2023-01-08T18:10:28.188Z,3.60
2023-01-08T18:12:55.116Z,3.50
2023-01-08T18:15:25.265Z,3.50
2023-01-08T18:18:14.300Z,3.40
2023-01-08T18:21:27.829Z,3.40
2023-01-08T18:24:38.459Z,3.40
2023-01-08T18:27:07.793Z,3.40
2023-01-08T18:29:34.799Z,3.40
2023-01-08T18:32:04.144Z,3.40
2023-01-08T18:34:54.444Z,3.30
2023-01-08T18:37:34.411Z,3.40
2023-01-08T18:40:04.594Z,3.40
2023-01-08T18:42:59.612Z,3.40
2023-01-08T18:45:35.439Z,3.40
2023-01-08T18:48:02.826Z,3.40
2023-01-08T18:50:30.163Z,3.50
2023-01-08T18:52:57.118Z,3.50
2023-01-08T18:55:26.278Z,3.50
2023-01-08T18:58:01.562Z,3.50
2023-01-08T19:00:37.429Z,3.50
2023-01-08T19:03:12.482Z,3.60
2023-01-08T19:06:14.070Z,3.60
2023-01-08T19:08:56.243Z,3.60
2023-01-08T19:11:40.101Z,3.60
2023-01-08T19:14:07.222Z,3.70
2023-01-08T19:16:43.682Z,3.70
2023-01-08T19:19:10.737Z,3.60
2023-01-08T19:21:37.878Z,3.60
2023-01-08T19:24:05.226Z,3.70
2023-01-08T19:26:32.175Z,3.60
2023-01-08T19:28:59.203Z,3.70
2023-01-08T19:31:26.225Z,3.70
2023-01-08T19:33:53.491Z,3.80
2023-01-08T19:36:21.183Z,3.80
2023-01-08T19:38:48.215Z,3.70
2023-01-08T19:41:33.564Z,3.70
2023-01-08T19:44:00.682Z,3.70
2023-01-08T19:46:28.443Z,3.70
2023-01-08T19:48:59.553Z,3.80
2023-01-08T19:51:26.929Z,3.70
2023-01-08T19:53:55.409Z,3.80
2023-01-08T19:56:22.749Z,3.70
2023-01-08T19:58:49.998Z,3.70
2023-01-08T20:01:22.482Z,3.80
2023-01-08T20:03:49.452Z,3.90
2023-01-08T20:06:19.974Z,3.80
2023-01-08T20:08:48.359Z,3.80
2023-01-08T20:11:19.324Z,3.90
2023-01-08T20:13:46.328Z,4.00
2023-01-08T20:16:16.370Z,3.80
2023-01-08T20:18:43.974Z,3.80
2023-01-08T20:21:15.434Z,3.80
2023-01-08T20:23:44.323Z,3.80
2023-01-08T20:26:14.662Z,3.80
2023-01-08T20:28:42.653Z,3.70
2023-01-08T20:31:15.296Z,3.70
2023-01-08T20:33:43.000Z,3.80
2023-01-08T20:36:18.064Z,3.80
2023-01-08T20:38:47.638Z,3.80
2023-01-08T20:41:14.963Z,3.90
2023-01-08T20:43:42.293Z,3.70
2023-01-08T20:46:10.449Z,3.70
2023-01-08T20:48:46.848Z,3.70
2023-01-08T20:51:18.915Z,3.80
2023-01-08T20:54:01.987Z,3.80
2023-01-08T20:56:32.171Z,3.70
2023-01-08T20:59:12.112Z,3.70
2023-01-08T21:01:41.252Z,3.70
2023-01-08T21:04:09.806Z,3.80
2023-01-08T21:06:36.794Z,3.70
2023-01-08T21:09:09.808Z,3.70
2023-01-08T21:11:39.007Z,3.70
2023-01-08T21:14:08.095Z,3.70
2023-01-08T21:16:36.545Z,3.70
2023-01-08T21:19:03.677Z,3.70
2023-01-08T21:21:33.932Z,3.70
2023-01-08T21:24:04.509Z,3.70
2023-01-08T21:26:33.932Z,3.70
2023-01-08T21:29:06.287Z,3.70
2023-01-08T21:31:33.744Z,3.80
2023-01-08T21:34:01.553Z,3.80
2023-01-08T21:36:31.395Z,3.80
2023-01-08T21:39:00.101Z,3.80
2023-01-08T21:41:47.100Z,3.80
2023-01-08T21:44:34.931Z,3.80
2023-01-08T21:47:03.543Z,3.70
2023-01-08T21:49:31.798Z,3.70
2023-01-08T21:52:17.660Z,3.80
2023-01-08T21:54:44.492Z,3.70
2023-01-08T21:57:14.468Z,3.70
2023-01-08T21:59:41.349Z,3.70
2023-01-08T22:02:14.084Z,3.70
2023-01-08T22:04:41.077Z,3.70
2023-01-08T22:07:08.017Z,3.70
2023-01-08T22:09:34.958Z,3.70
2023-01-08T22:12:01.836Z,3.70
2023-01-08T22:14:28.658Z,3.70
2023-01-08T22:16:57.712Z,3.70
2023-01-08T22:19:26.714Z,3.80
2023-01-08T22:21:53.545Z,3.80
2023-01-08T22:24:20.380Z,3.80
2023-01-08T22:26:48.667Z,3.80
2023-01-08T22:29:15.511Z,3.80
2023-01-08T22:31:42.443Z,3.70
2023-01-08T22:34:14.829Z,3.80
2023-01-08T22:36:53.643Z,3.90
2023-01-08T22:39:20.456Z,3.90
2023-01-08T22:41:47.350Z,3.80
2023-01-08T22:44:14.983Z,3.80
2023-01-08T22:46:50.549Z,3.80
2023-01-08T22:49:30.461Z,3.80
2023-01-08T22:52:00.515Z,3.70
2023-01-08T22:54:32.194Z,3.80
2023-01-08T22:57:02.537Z,3.80
2023-01-08T22:59:29.469Z,3.90
2023-01-08T23:01:56.557Z,3.80
2023-01-08T23:04:25.842Z,3.80
2023-01-08T23:06:52.934Z,3.90
2023-01-08T23:09:32.025Z,3.80
2023-01-08T23:12:01.646Z,3.80
2023-01-08T23:14:28.669Z,3.90
2023-01-08T23:16:55.485Z,3.90
2023-01-08T23:19:22.313Z,3.90
2023-01-08T23:21:52.218Z,3.90
2023-01-08T23:24:19.387Z,3.90
2023-01-08T23:26:46.336Z,3.90
2023-01-08T23:29:13.191Z,3.90
2023-01-08T23:31:40.471Z,3.90
2023-01-08T23:34:09.865Z,3.90
2023-01-08T23:36:36.814Z,3.90
2023-01-08T23:39:04.546Z,3.90
2023-01-08T23:41:35.084Z,3.90
2023-01-08T23:44:05.586Z,3.90
2023-01-08T23:46:32.827Z,3.90
2023-01-08T23:48:59.685Z,4.10
2023-01-08T23:51:31.932Z,4.00
2023-01-08T23:54:02.173Z,3.90
2023-01-08T23:56:32.264Z,3.90
2023-01-08T23:59:02.256Z,3.90
